Time;durP1;ratioP1;P1;durP2;ratioP2;P2;SDS_P1;SDS_P2;PMS_P1;PMS_P2;Temp;Humidity;BMP_temperature;BMP_pressure;BME280_temperature;BME280_humidity;BME280_pressure;Samples;Min_cycle;Max_cycle;Signal;HPM_P1;HPM_P2
2023/05/05 00:00:20;;;;;;;4.23;2.57;;;16.20;1.00;;;;;;5031537;28;20172;-78
2023/05/05 00:02:46;;;;;;;5.77;3.00;;;16.30;99.90;;;;;;5030358;28;20746;-81
2023/05/05 00:05:12;;;;;;;3.23;2.47;;;16.20;99.90;;;;;;5031487;28;20261;-78
2023/05/05 00:07:38;;;;;;;3.17;2.60;;;16.20;1.00;;;;;;5031994;28;20690;-78
2023/05/05 00:10:04;;;;;;;3.67;3.03;;;16.20;1.00;;;;;;5031764;28;20168;-78
2023/05/05 00:12:29;;;;;;;3.90;2.50;;;16.20;1.00;;;;;;5030451;28;20180;-78
2023/05/05 00:14:55;;;;;;;3.13;2.40;;;16.20;1.00;;;;;;5012172;28;20550;-78
2023/05/05 00:17:21;;;;;;;2.77;2.47;;;16.20;1.00;;;;;;5010321;28;20353;-78
2023/05/05 00:19:46;;;;;;;3.23;2.53;;;16.10;1.00;;;;;;5010792;28;20204;-78
2023/05/05 00:22:12;;;;;;;2.83;2.53;;;16.10;1.00;;;;;;5010425;28;20208;-78
2023/05/05 00:24:37;;;;;;;3.27;2.40;;;16.10;1.00;;;;;;5010114;28;20584;-78
2023/05/05 00:27:03;;;;;;;5.17;2.73;;;16.10;1.00;;;;;;5010668;28;20735;-78
2023/05/05 00:29:29;;;;;;;3.80;2.40;;;16.10;1.00;;;;;;5012124;28;20169;-77
2023/05/05 00:31:55;;;;;;;5.13;2.63;;;16.10;93.40;;;;;;5012466;28;20169;-78
2023/05/05 00:34:21;;;;;;;3.87;2.20;;;16.10;99.70;;;;;;5011645;28;20560;-78
2023/05/05 00:36:47;;;;;;;6.07;2.67;;;16.10;99.90;;;;;;5011936;28;20211;-78
2023/05/05 00:39:12;;;;;;;3.47;2.17;;;16.10;1.00;;;;;;5011277;28;20212;-78
2023/05/05 00:41:38;;;;;;;3.57;2.67;;;16.10;1.00;;;;;;5011769;28;20177;-78
2023/05/05 00:44:04;;;;;;;5.33;2.50;;;16.10;1.00;;;;;;5011779;28;20205;-78
2023/05/05 00:46:32;;;;;;;3.53;2.93;;;16.00;1.00;;;;;;5015188;28;20221;-78
2023/05/05 00:48:59;;;;;;;3.53;2.80;;;16.00;1.00;;;;;;5013737;28;20684;-78
2023/05/05 00:51:25;;;;;;;5.70;2.70;;;15.90;1.00;;;;;;5013380;28;20653;-78
2023/05/05 00:53:51;;;;;;;3.43;2.60;;;16.10;1.00;;;;;;5025353;28;20199;-78
2023/05/05 00:56:18;;;;;;;5.97;2.97;;;15.90;39.30;;;;;;5033731;28;20579;-78
2023/05/05 00:58:44;;;;;;;5.90;4.00;;;15.80;99.90;;;;;;5034563;28;20206;-78
2023/05/05 01:01:10;;;;;;;6.23;3.27;;;15.80;99.90;;;;;;5035028;28;20267;-77
2023/05/05 01:03:37;;;;;;;6.40;2.77;;;15.70;66.60;;;;;;5033322;28;20267;-78
2023/05/05 01:06:29;;;;;;;3.00;2.70;;;15.60;1.00;;;;;;5032961;28;20188;-78
2023/05/05 01:09:06;;;;;;;4.90;2.73;;;15.60;8.80;;;;;;5033934;28;20203;-78
2023/05/05 01:12:03;;;;;;;4.37;2.90;;;15.60;1.00;;;;;;5032386;28;20213;-79
2023/05/05 01:14:40;;;;;;;3.43;2.90;;;15.50;99.90;;;;;;5021627;28;20193;-78
2023/05/05 01:17:16;;;;;;;3.13;2.73;;;15.50;99.90;;;;;;5013887;28;20201;-78
2023/05/05 01:19:42;;;;;;;3.23;2.93;;;15.40;99.90;;;;;;5012515;28;20474;-78
2023/05/05 01:22:11;;;;;;;5.43;2.70;;;15.40;99.90;;;;;;5012411;28;20215;-78
2023/05/05 01:25:01;;;;;;;3.63;3.20;;;15.40;1.00;;;;;;5013981;28;20307;-78
2023/05/05 01:27:39;;;;;;;4.57;3.10;;;15.30;1.00;;;;;;5014065;28;20193;-78
2023/05/05 01:30:25;;;;;;;7.50;3.63;;;15.30;99.90;;;;;;5015117;28;20165;-78
2023/05/05 01:32:56;;;;;;;5.53;3.47;;;15.20;1.00;;;;;;5015943;28;20627;-78
2023/05/05 01:35:30;;;;;;;5.07;3.40;;;15.20;99.90;;;;;;5032200;28;20169;-78
2023/05/05 01:38:08;;;;;;;6.40;3.53;;;15.10;1.00;;;;;;5030921;28;20216;-79
2023/05/05 01:40:41;;;;;;;4.30;3.13;;;15.10;99.90;;;;;;5034297;28;20171;-78
2023/05/05 01:43:09;;;;;;;6.67;3.13;;;15.10;1.00;;;;;;5032401;28;20218;-78
2023/05/05 01:45:39;;;;;;;4.80;3.50;;;15.00;1.00;;;;;;5033983;28;20689;-78
2023/05/05 01:48:06;;;;;;;5.70;3.27;;;14.80;1.00;;;;;;5033657;28;20200;-78
2023/05/05 01:50:33;;;;;;;4.20;3.00;;;14.80;1.00;;;;;;5034350;28;20181;-78
2023/05/05 01:53:02;;;;;;;3.93;3.23;;;14.80;1.00;;;;;;5016821;28;20272;-78
2023/05/05 01:55:29;;;;;;;8.03;3.83;;;14.70;99.90;;;;;;5012716;28;20648;-78
2023/05/05 01:57:57;;;;;;;4.07;3.50;;;14.70;1.00;;;;;;5011761;28;20197;-78
2023/05/05 02:00:24;;;;;;;7.93;3.70;;;14.60;1.00;;;;;;5014552;28;20268;-78
2023/05/05 02:02:53;;;;;;;5.83;4.10;;;14.80;1.00;;;;;;5031000;28;20196;-78
2023/05/05 02:05:21;;;;;;;8.10;3.93;;;14.60;29.00;;;;;;5033571;28;20564;-77
2023/05/05 02:07:48;;;;;;;5.17;3.27;;;14.40;25.00;;;;;;5034704;28;20189;-78
2023/05/05 02:10:14;;;;;;;4.20;3.20;;;14.40;1.00;;;;;;5032664;28;20233;-78
2023/05/05 02:12:41;;;;;;;4.03;3.47;;;14.40;1.00;;;;;;5032198;28;20200;-78
2023/05/05 02:15:08;;;;;;;5.97;3.67;;;14.40;1.00;;;;;;5031225;28;20282;-78
2023/05/05 02:17:34;;;;;;;5.83;4.03;;;14.40;1.00;;;;;;5032369;28;20271;-77
2023/05/05 02:20:01;;;;;;;5.40;4.20;;;14.40;1.00;;;;;;5031661;28;20187;-78
2023/05/05 02:22:27;;;;;;;7.33;4.07;;;14.40;1.00;;;;;;5017902;28;20209;-78
2023/05/05 02:24:53;;;;;;;6.10;3.77;;;14.40;1.00;;;;;;5012805;28;20251;-78
2023/05/05 02:27:21;;;;;;;6.17;4.17;;;14.40;56.20;;;;;;5012518;28;20680;-78
2023/05/05 02:29:55;;;;;;;5.00;4.33;;;14.40;99.90;;;;;;5012298;28;20178;-78
2023/05/05 02:32:33;;;;;;;7.00;4.40;;;14.30;1.00;;;;;;5011238;28;20189;-78
2023/05/05 02:35:14;;;;;;;6.50;3.97;;;14.20;99.90;;;;;;5013115;28;20170;-78
2023/05/05 02:37:45;;;;;;;5.10;4.37;;;14.10;99.90;;;;;;5011210;28;20259;-78
2023/05/05 02:40:13;;;;;;;5.53;3.90;;;14.20;99.90;;;;;;5013112;28;20185;-78
2023/05/05 02:42:41;;;;;;;6.63;3.83;;;14.10;99.90;;;;;;5012443;28;20185;-78
2023/05/05 02:45:13;;;;;;;8.63;4.07;;;14.10;99.90;;;;;;5012968;28;20200;-78
2023/05/05 02:47:38;;;;;;;6.13;4.13;;;14.10;99.90;;;;;;5013601;28;20192;-78
2023/05/05 02:50:05;;;;;;;5.43;4.60;;;14.10;99.90;;;;;;5012299;28;20247;-78
2023/05/05 02:52:32;;;;;;;5.60;4.30;;;14.10;99.90;;;;;;5024809;28;20199;-78
2023/05/05 02:54:58;;;;;;;8.10;4.40;;;14.10;99.90;;;;;;5031338;28;20188;-78
2023/05/05 02:57:55;;;;;;;5.80;4.10;;;14.10;99.90;;;;;;5031620;28;20216;-78
2023/05/05 03:00:39;;;;;;;5.57;4.47;;;14.10;1.00;;;;;;5058011;28;20199;-78
2023/05/05 03:03:33;;;;;;;8.40;4.07;;;14.10;1.00;;;;;;5013696;28;20196;-78
2023/05/05 03:06:09;;;;;;;8.40;3.83;;;14.10;1.00;;;;;;5012300;28;20185;-78
2023/05/05 03:08:42;;;;;;;6.30;4.13;;;14.10;1.00;;;;;;5012389;28;20740;-78
2023/05/05 03:11:17;;;;;;;7.43;4.33;;;14.10;1.00;;;;;;5012169;28;20250;-78
2023/05/05 03:13:44;;;;;;;7.07;4.37;;;14.00;1.00;;;;;;5032224;28;20305;-78
2023/05/05 03:16:10;;;;;;;6.33;3.97;;;14.00;1.00;;;;;;5030502;28;20564;-78
2023/05/05 03:18:38;;;;;;;6.27;4.37;;;14.00;1.00;;;;;;5030220;28;20207;-78
2023/05/05 03:21:08;;;;;;;8.10;4.63;;;14.00;1.00;;;;;;5031644;28;20180;-78
2023/05/05 03:23:35;;;;;;;6.43;4.50;;;14.00;1.00;;;;;;5009934;28;20178;-78
2023/05/05 03:26:00;;;;;;;7.37;4.83;;;14.00;1.00;;;;;;5011401;28;20235;-78
2023/05/05 03:28:26;;;;;;;6.50;4.90;;;13.90;1.00;;;;;;5011520;28;20193;-78
2023/05/05 03:30:52;;;;;;;6.60;4.17;;;13.90;1.00;;;;;;5011866;28;20180;-78
2023/05/05 03:33:18;;;;;;;6.47;4.37;;;13.80;1.00;;;;;;5020204;28;20196;-78
2023/05/05 03:35:43;;;;;;;4.93;4.40;;;13.80;18.10;;;;;;5011400;28;20177;-78
2023/05/05 03:38:09;;;;;;;5.40;4.27;;;13.80;47.50;;;;;;5026492;28;20212;-78
2023/05/05 03:40:34;;;;;;;4.70;4.10;;;13.70;1.00;;;;;;5026182;28;20188;-77
2023/05/05 03:43:00;;;;;;;5.57;4.40;;;13.70;1.00;;;;;;5025283;28;20580;-78
2023/05/05 03:45:26;;;;;;;5.33;4.47;;;13.60;1.00;;;;;;5011326;28;20207;-78
2023/05/05 03:47:51;;;;;;;4.97;4.47;;;13.50;24.50;;;;;;5026207;28;20264;-78
2023/05/05 03:50:17;;;;;;;5.10;4.57;;;13.50;38.80;;;;;;5011662;28;20192;-78
2023/05/05 03:52:42;;;;;;;5.07;4.47;;;13.50;80.30;;;;;;5011042;28;20644;-78
2023/05/05 03:55:08;;;;;;;5.63;4.60;;;13.50;99.90;;;;;;5009539;28;20209;-78
2023/05/05 03:57:34;;;;;;;5.90;4.70;;;13.50;99.90;;;;;;5010849;28;20216;-78
2023/05/05 04:00:00;;;;;;;10.70;5.90;;;13.40;93.90;;;;;;5009630;28;20559;-78
2023/05/05 04:02:25;;;;;;;5.00;4.23;;;13.40;99.50;;;;;;5011080;28;20651;-78
2023/05/05 04:04:51;;;;;;;6.60;4.80;;;13.40;99.90;;;;;;5011295;28;20200;-77
2023/05/05 04:07:17;;;;;;;5.23;4.73;;;13.40;99.90;;;;;;5009921;28;20204;-78
2023/05/05 04:09:43;;;;;;;6.00;4.87;;;13.30;99.90;;;;;;5011275;28;20169;-78
2023/05/05 04:12:10;;;;;;;4.50;4.10;;;13.30;99.90;;;;;;5028272;28;20544;-78
2023/05/05 04:14:35;;;;;;;6.93;4.57;;;13.20;99.90;;;;;;5029623;28;20572;-78
2023/05/05 04:17:01;;;;;;;6.50;4.83;;;13.30;99.90;;;;;;5029384;28;20203;-78
2023/05/05 04:19:26;;;;;;;5.53;4.40;;;13.20;99.90;;;;;;5029121;28;20601;-78
2023/05/05 04:21:52;;;;;;;6.63;4.53;;;13.20;99.90;;;;;;5023939;28;20193;-78
2023/05/05 04:24:21;;;;;;;6.43;5.07;;;13.20;99.90;;;;;;5010913;28;20200;-78
2023/05/05 04:26:47;;;;;;;6.40;4.80;;;13.10;99.90;;;;;;5010990;28;20168;-78
2023/05/05 04:29:13;;;;;;;6.10;4.93;;;13.10;99.90;;;;;;5009776;28;20548;-78
2023/05/05 04:31:38;;;;;;;10.70;5.33;;;13.10;99.90;;;;;;5014952;28;20188;-78
2023/05/05 04:34:03;;;;;;;8.50;5.83;;;13.10;99.90;;;;;;5030559;28;20181;-78
2023/05/05 04:36:29;;;;;;;8.67;5.20;;;13.10;99.90;;;;;;5029290;28;20191;-77
2023/05/05 04:38:54;;;;;;;5.80;5.20;;;13.10;99.90;;;;;;5029244;28;20700;-78
2023/05/05 04:41:20;;;;;;;7.17;5.57;;;13.10;99.90;;;;;;5028060;28;20640;-78
2023/05/05 04:43:46;;;;;;;5.70;5.10;;;13.10;99.90;;;;;;5009548;28;20196;-77
2023/05/05 04:46:12;;;;;;;6.47;5.50;;;13.10;99.90;;;;;;5010478;28;20177;-77
2023/05/05 04:48:37;;;;;;;7.90;5.53;;;13.10;99.90;;;;;;5009012;28;20692;-78
2023/05/05 04:51:06;;;;;;;6.43;5.83;;;13.10;99.90;;;;;;5012872;28;20180;-79
2023/05/05 04:53:32;;;;;;;5.90;5.27;;;13.00;99.90;;;;;;5013366;28;20267;-78
2023/05/05 04:56:01;;;;;;;8.23;5.80;;;13.00;99.90;;;;;;5011649;28;20212;-79
2023/05/05 04:58:27;;;;;;;7.13;5.37;;;13.10;99.90;;;;;;5012625;28;20197;-78
2023/05/05 05:00:53;;;;;;;9.47;6.07;;;13.10;99.90;;;;;;5011458;28;20184;-76
2023/05/05 05:03:18;;;;;;;10.87;7.20;;;13.10;99.90;;;;;;5009422;28;20192;-76
2023/05/05 05:05:44;;;;;;;12.07;5.77;;;13.00;99.90;;;;;;5009975;28;20197;-77
2023/05/05 05:08:09;;;;;;;8.03;6.63;;;13.10;99.90;;;;;;5008898;28;20226;-77
2023/05/05 05:10:35;;;;;;;6.63;5.93;;;13.10;99.90;;;;;;5008901;28;20181;-77
2023/05/05 05:13:01;;;;;;;8.90;7.03;;;13.20;99.90;;;;;;5008461;28;20635;-77
2023/05/05 05:15:26;;;;;;;8.50;6.77;;;13.20;99.90;;;;;;5010291;28;20173;-78
2023/05/05 05:17:52;;;;;;;11.37;7.27;;;13.20;99.90;;;;;;5031717;28;20274;-78
2023/05/05 05:20:18;;;;;;;9.63;6.97;;;13.20;99.90;;;;;;5029974;28;20195;-78
2023/05/05 05:22:43;;;;;;;8.17;6.40;;;13.20;99.90;;;;;;5028905;28;20180;-78
2023/05/05 05:25:09;;;;;;;9.23;6.37;;;13.30;99.90;;;;;;5029286;28;20805;-77
2023/05/05 05:27:51;;;;;;;11.47;6.63;;;13.30;99.90;;;;;;5027435;28;20200;-79
2023/05/05 05:30:17;;;;;;;7.40;6.67;;;13.40;99.90;;;;;;5027853;28;20176;-78
2023/05/05 05:32:57;;;;;;;9.27;6.67;;;13.40;99.90;;;;;;5032477;28;20584;-80
2023/05/05 05:35:28;;;;;;;8.07;6.93;;;13.40;99.90;;;;;;5033935;28;20580;-80
2023/05/05 05:38:04;;;;;;;8.60;6.90;;;13.40;99.90;;;;;;5032146;28;20200;-79
2023/05/05 05:40:30;;;;;;;10.93;7.00;;;13.40;99.90;;;;;;5032142;28;20176;-79
2023/05/05 05:42:56;;;;;;;9.17;6.63;;;13.50;99.90;;;;;;5033200;28;20176;-77
2023/05/05 05:45:21;;;;;;;10.53;7.43;;;13.60;99.90;;;;;;5033141;28;20196;-77
2023/05/05 05:47:47;;;;;;;10.87;7.80;;;13.60;99.90;;;;;;5031858;28;20246;-77
2023/05/05 05:50:13;;;;;;;10.23;8.00;;;13.70;99.90;;;;;;5032102;28;20173;-77
2023/05/05 05:52:38;;;;;;;13.73;10.13;;;13.70;99.90;;;;;;5030936;28;20234;-77
2023/05/05 05:55:05;;;;;;;13.27;9.30;;;13.70;99.90;;;;;;5030823;28;20188;-78
2023/05/05 05:57:30;;;;;;;11.77;9.07;;;13.80;99.90;;;;;;5030878;28;20620;-78
2023/05/05 05:59:56;;;;;;;11.57;10.10;;;13.90;99.90;;;;;;5032577;28;20241;-77
2023/05/05 06:02:22;;;;;;;12.20;10.00;;;13.90;99.90;;;;;;5032581;28;20176;-78
2023/05/05 06:04:47;;;;;;;17.20;9.80;;;13.90;99.90;;;;;;5030989;28;20199;-78
2023/05/05 06:07:13;;;;;;;15.87;10.40;;;14.00;99.90;;;;;;5031349;28;20199;-78
2023/05/05 06:09:38;;;;;;;17.10;11.50;;;14.10;99.90;;;;;;5030830;28;20172;-77
2023/05/05 06:12:04;;;;;;;14.40;11.33;;;14.10;99.90;;;;;;5032590;28;20678;-77
2023/05/05 06:14:30;;;;;;;15.33;11.80;;;14.20;99.90;;;;;;5031111;28;20186;-79
2023/05/05 06:16:56;;;;;;;15.90;12.40;;;14.30;99.90;;;;;;5031147;28;20184;-78
2023/05/05 06:19:21;;;;;;;17.97;14.43;;;14.40;99.90;;;;;;5032273;28;20184;-77
2023/05/05 06:21:47;;;;;;;21.40;14.30;;;14.50;99.90;;;;;;5032809;28;20173;-79
2023/05/05 06:24:12;;;;;;;17.47;15.00;;;14.60;99.90;;;;;;5033676;28;20196;-79
2023/05/05 06:26:38;;;;;;;19.63;14.17;;;14.80;99.90;;;;;;5033691;28;20180;-79
2023/05/05 06:29:03;;;;;;;21.17;14.33;;;14.90;99.90;;;;;;5034262;28;20169;-78
2023/05/05 06:31:29;;;;;;;19.43;14.37;;;15.00;99.90;;;;;;5033024;28;20593;-78
2023/05/05 06:33:55;;;;;;;17.87;14.17;;;15.00;99.90;;;;;;5032056;28;20169;-78
2023/05/05 06:36:20;;;;;;;17.17;13.60;;;15.20;99.90;;;;;;5033667;28;20175;-78
2023/05/05 06:38:46;;;;;;;15.60;13.73;;;15.20;99.90;;;;;;5032166;28;20686;-79
2023/05/05 06:41:11;;;;;;;17.40;13.73;;;15.30;99.90;;;;;;5033498;28;20599;-79
2023/05/05 06:43:37;;;;;;;18.33;14.10;;;15.40;99.90;;;;;;5033498;28;20172;-78
2023/05/05 06:46:03;;;;;;;16.60;13.50;;;15.60;93.80;;;;;;5033523;28;20199;-79
2023/05/05 06:48:28;;;;;;;15.53;13.00;;;15.70;99.90;;;;;;5033523;28;20184;-78
2023/05/05 06:50:55;;;;;;;17.67;13.87;;;15.80;99.90;;;;;;5032971;28;20173;-79
2023/05/05 06:53:20;;;;;;;16.60;12.97;;;15.90;99.90;;;;;;5033673;28;20217;-78
2023/05/05 06:55:46;;;;;;;17.60;13.40;;;16.00;99.90;;;;;;5034013;28;20173;-78
2023/05/05 06:58:12;;;;;;;13.90;12.03;;;16.10;99.90;;;;;;5032122;28;20202;-78
2023/05/05 07:00:39;;;;;;;16.57;11.57;;;16.30;99.90;;;;;;5032209;28;20183;-78
2023/05/05 07:03:04;;;;;;;12.23;9.73;;;16.40;1.00;;;;;;5033491;28;20194;-78
2023/05/05 07:05:30;;;;;;;10.73;8.67;;;16.50;1.00;;;;;;5031951;28;20196;-78
2023/05/05 07:07:56;;;;;;;10.27;8.60;;;16.60;1.00;;;;;;5032677;28;20192;-78
2023/05/05 07:10:23;;;;;;;9.97;8.60;;;16.60;1.00;;;;;;5032305;28;20722;-79
2023/05/05 07:12:49;;;;;;;8.67;5.87;;;16.70;99.90;;;;;;5033278;28;20176;-78
2023/05/05 07:15:15;;;;;;;11.07;7.40;;;16.70;1.00;;;;;;5032563;28;20176;-78
2023/05/05 07:17:41;;;;;;;11.70;7.30;;;16.80;1.00;;;;;;5032471;28;20249;-78
2023/05/05 07:20:07;;;;;;;11.73;8.00;;;16.90;1.00;;;;;;5033038;28;20248;-79
2023/05/05 07:22:33;;;;;;;9.17;6.67;;;16.90;1.00;;;;;;5033325;28;20712;-78
2023/05/05 07:24:58;;;;;;;10.63;7.13;;;17.00;1.00;;;;;;5034266;28;20232;-78
2023/05/05 07:27:24;;;;;;;10.93;7.47;;;17.00;99.90;;;;;;5033555;28;20196;-78
2023/05/05 07:29:50;;;;;;;9.57;7.87;;;17.10;1.00;;;;;;5034247;28;20169;-80
2023/05/05 07:32:15;;;;;;;10.50;7.73;;;17.10;99.90;;;;;;5032126;28;20188;-80
2023/05/05 07:34:41;;;;;;;8.80;7.00;;;17.20;99.90;;;;;;5034420;28;20195;-79
2023/05/05 07:37:07;;;;;;;10.37;7.43;;;17.30;99.90;;;;;;5033747;28;20219;-79
2023/05/05 07:39:32;;;;;;;8.37;5.87;;;17.40;32.20;;;;;;5031425;28;20709;-79
2023/05/05 07:41:58;;;;;;;8.10;5.60;;;17.40;99.90;;;;;;5032127;28;20180;-79
2023/05/05 07:44:24;;;;;;;9.77;5.50;;;17.50;1.00;;;;;;5032633;28;20200;-79
2023/05/05 07:46:50;;;;;;;6.67;5.67;;;17.50;1.00;;;;;;5034439;28;20537;-81
2023/05/05 07:49:15;;;;;;;6.97;4.63;;;17.60;1.00;;;;;;5033668;28;20183;-82
2023/05/05 07:51:41;;;;;;;9.00;5.17;;;17.60;48.50;;;;;;5032911;28;20187;-82
2023/05/05 07:54:07;;;;;;;5.90;4.37;;;17.60;1.00;;;;;;5033188;28;20215;-81
2023/05/05 07:56:33;;;;;;;8.37;5.00;;;17.60;1.00;;;;;;5035667;28;20192;-81
2023/05/05 07:58:59;;;;;;;6.17;4.50;;;17.60;1.00;;;;;;5035517;28;20595;-80
2023/05/05 08:01:24;;;;;;;5.83;4.90;;;17.60;1.00;;;;;;5035399;28;20647;-80
2023/05/05 08:03:50;;;;;;;7.30;5.87;;;17.60;1.00;;;;;;5033668;28;20240;-80
2023/05/05 08:06:20;;;;;;;6.37;4.97;;;17.60;1.00;;;;;;5035057;28;20271;-81
2023/05/05 08:08:46;;;;;;;8.17;5.20;;;17.70;99.90;;;;;;5034654;28;20192;-80
2023/05/05 08:11:12;;;;;;;7.43;4.87;;;17.80;99.90;;;;;;5034041;28;20341;-80
2023/05/05 08:13:38;;;;;;;7.70;5.40;;;17.80;99.90;;;;;;5033660;28;20229;-80
2023/05/05 08:16:03;;;;;;;8.23;5.50;;;17.80;99.90;;;;;;5034631;28;20259;-80
2023/05/05 08:18:29;;;;;;;11.67;7.17;;;17.80;99.90;;;;;;5034908;28;20196;-80
2023/05/05 08:20:55;;;;;;;7.53;5.80;;;17.90;99.90;;;;;;5035589;28;20190;-80
2023/05/05 08:23:20;;;;;;;9.60;5.67;;;17.90;72.10;;;;;;5035488;28;20176;-80
2023/05/05 08:25:46;;;;;;;8.80;5.53;;;17.90;99.90;;;;;;5033412;28;20616;-81
2023/05/05 08:28:11;;;;;;;11.43;6.93;;;17.90;99.90;;;;;;5033762;28;20192;-80
2023/05/05 08:30:37;;;;;;;9.63;5.37;;;17.90;99.90;;;;;;5032747;28;20183;-80
2023/05/05 08:33:02;;;;;;;11.07;6.53;;;18.00;1.00;;;;;;5034399;28;20168;-80
2023/05/05 08:35:28;;;;;;;10.30;6.57;;;18.00;1.00;;;;;;5034005;28;20180;-80
2023/05/05 08:37:53;;;;;;;11.97;6.03;;;18.10;1.00;;;;;;5034565;28;20206;-82
2023/05/05 08:40:27;;;;;;;13.00;7.00;;;18.10;99.90;;;;;;5033706;28;20184;-79
2023/05/05 08:42:53;;;;;;;8.40;6.37;;;18.30;1.00;;;;;;5034425;28;20295;-83
2023/05/05 08:45:19;;;;;;;11.13;7.20;;;18.30;99.90;;;;;;5033209;28;20200;-79
2023/05/05 08:47:44;;;;;;;9.60;6.27;;;18.40;1.00;;;;;;5033584;28;20189;-80
2023/05/05 08:50:10;;;;;;;9.90;5.77;;;18.50;1.00;;;;;;5032728;28;20557;-80
2023/05/05 08:53:15;;;;;;;8.77;6.17;;;18.60;1.00;;;;;;5033098;28;20192;-81
2023/05/05 08:55:47;;;;;;;6.33;3.50;;;18.60;99.90;;;;;;5034442;28;20180;-80
2023/05/05 08:58:13;;;;;;;5.33;3.50;;;18.70;99.90;;;;;;5034197;28;20200;-80
2023/05/05 09:00:41;;;;;;;6.17;4.37;;;18.80;6.80;;;;;;5032225;28;20224;-80
2023/05/05 09:03:07;;;;;;;8.80;4.50;;;18.80;1.00;;;;;;5032086;28;20628;-80
2023/05/05 09:05:34;;;;;;;6.57;4.20;;;18.90;25.40;;;;;;5032493;28;20211;-81
2023/05/05 09:08:00;;;;;;;6.37;4.40;;;18.80;99.90;;;;;;5034189;28;20196;-78
2023/05/05 09:10:27;;;;;;;5.13;3.93;;;19.00;99.90;;;;;;5034424;28;20655;-79
2023/05/05 09:12:53;;;;;;;8.83;4.90;;;18.90;1.00;;;;;;5035767;28;20199;-78
2023/05/05 09:15:19;;;;;;;7.40;5.10;;;18.90;99.90;;;;;;5036025;28;20188;-78
2023/05/05 09:17:45;;;;;;;9.73;7.20;;;19.00;1.00;;;;;;5033878;28;20212;-78
2023/05/05 09:20:12;;;;;;;10.90;6.40;;;19.10;1.00;;;;;;5034018;28;20236;-78
2023/05/05 09:22:40;;;;;;;10.33;7.07;;;19.20;1.00;;;;;;5034418;28;20207;-78
2023/05/05 09:25:08;;;;;;;6.83;5.97;;;19.30;99.90;;;;;;5034761;28;20203;-78
2023/05/05 09:27:39;;;;;;;10.63;7.33;;;19.40;1.00;;;;;;5035863;28;20276;-78
2023/05/05 09:30:06;;;;;;;10.50;7.13;;;19.50;99.90;;;;;;5035321;28;20169;-79
2023/05/05 09:33:01;;;;;;;12.07;7.10;;;19.60;99.90;;;;;;5034499;28;20180;-78
2023/05/05 09:35:27;;;;;;;9.30;6.47;;;19.80;99.90;;;;;;5048539;28;20256;-78
2023/05/05 09:37:53;;;;;;;8.63;6.93;;;19.90;99.90;;;;;;5034799;28;20200;-78
2023/05/05 09:40:19;;;;;;;8.20;6.37;;;19.90;99.90;;;;;;5035044;28;20176;-78
2023/05/05 09:42:45;;;;;;;8.70;5.67;;;20.00;99.90;;;;;;5035011;28;20223;-80
2023/05/05 09:45:25;;;;;;;12.73;7.90;;;20.00;99.90;;;;;;5034693;28;20596;-78
2023/05/05 09:47:51;;;;;;;10.47;7.13;;;19.90;1.00;;;;;;5034125;28;20196;-79
2023/05/05 09:50:17;;;;;;;11.67;6.30;;;19.70;1.00;;;;;;5035106;28;20302;-79
2023/05/05 09:53:01;;;;;;;7.73;6.07;;;19.70;99.90;;;;;;5034360;28;20233;-79
2023/05/05 09:55:28;;;;;;;9.20;5.93;;;19.80;1.00;;;;;;5035197;28;20233;-79
2023/05/05 09:57:53;;;;;;;5.97;5.37;;;19.90;1.00;;;;;;5034520;28;20271;-79
2023/05/05 10:00:20;;;;;;;6.30;4.73;;;20.00;1.00;;;;;;5035821;28;20648;-81
2023/05/05 10:02:45;;;;;;;7.67;5.23;;;20.10;1.00;;;;;;5036194;28;20370;-79
2023/05/05 10:05:16;;;;;;;13.40;6.13;;;20.10;99.90;;;;;;5036951;28;20200;-80
2023/05/05 10:07:44;;;;;;;10.33;5.57;;;20.20;99.90;;;;;;5037804;28;20196;-79
2023/05/05 10:10:14;;;;;;;5.77;4.40;;;20.30;99.90;;;;;;5038552;28;20181;-78
2023/05/05 10:12:41;;;;;;;6.10;4.37;;;20.30;30.90;;;;;;5037960;28;20192;-79
2023/05/05 10:15:08;;;;;;;9.57;5.20;;;20.60;79.00;;;;;;5039220;28;20177;-79
2023/05/05 10:17:36;;;;;;;10.00;4.77;;;20.40;99.90;;;;;;5037353;28;20765;-79
2023/05/05 10:20:02;;;;;;;26.63;8.20;;;20.40;99.90;;;;;;5040583;28;20208;-79
2023/05/05 10:22:33;;;;;;;21.60;5.90;;;20.30;1.00;;;;;;5039879;28;20180;-80
2023/05/05 10:25:14;;;;;;;12.27;4.97;;;20.40;1.00;;;;;;5034795;28;20200;-80
2023/05/05 10:27:46;;;;;;;17.70;5.07;;;20.50;6.90;;;;;;5034640;28;20200;-79
2023/05/05 10:30:19;;;;;;;5.47;4.57;;;20.50;99.90;;;;;;5035550;28;20204;-80
2023/05/05 10:32:53;;;;;;;11.63;5.80;;;20.40;1.00;;;;;;5034163;28;20161;-79
2023/05/05 10:35:25;;;;;;;6.17;3.70;;;20.30;99.90;;;;;;5035282;28;20690;-78
2023/05/05 10:37:51;;;;;;;8.23;4.30;;;20.40;99.90;;;;;;5032198;28;20287;-79
2023/05/05 10:40:20;;;;;;;9.10;4.60;;;20.50;1.00;;;;;;5033979;28;20176;-80
2023/05/05 10:42:47;;;;;;;4.40;3.50;;;20.40;1.00;;;;;;5035592;28;20654;-79
2023/05/05 10:45:12;;;;;;;11.17;4.30;;;20.50;5.50;;;;;;5033939;28;20223;-80
2023/05/05 10:47:39;;;;;;;9.80;4.17;;;20.60;99.90;;;;;;5033473;28;20684;-80
2023/05/05 10:50:15;;;;;;;6.23;3.77;;;20.70;99.90;;;;;;5035757;28;20595;-79
2023/05/05 10:53:15;;;;;;;7.27;3.70;;;20.80;99.90;;;;;;5033754;28;20192;-79
2023/05/05 10:56:01;;;;;;;6.27;3.90;;;20.80;1.00;;;;;;5035012;28;20172;-79
2023/05/05 10:58:38;;;;;;;6.63;3.60;;;20.70;1.00;;;;;;5034360;28;20218;-80
2023/05/05 11:01:05;;;;;;;7.23;3.67;;;20.60;1.00;;;;;;5033896;28;20216;-79
2023/05/05 11:03:31;;;;;;;5.17;3.27;;;20.80;23.70;;;;;;5036255;28;20233;-80
2023/05/05 11:06:11;;;;;;;5.60;3.10;;;20.80;98.30;;;;;;5036789;28;20211;-80
2023/05/05 11:08:41;;;;;;;5.20;3.10;;;20.90;99.90;;;;;;5035135;28;20199;-80
2023/05/05 11:11:09;;;;;;;3.70;3.33;;;21.00;99.90;;;;;;5034035;28;20202;-80
2023/05/05 11:13:36;;;;;;;6.43;3.30;;;21.00;99.90;;;;;;5034047;28;20192;-80
2023/05/05 11:16:01;;;;;;;5.70;3.27;;;21.20;1.00;;;;;;5034036;28;20317;-80
2023/05/05 11:18:43;;;;;;;4.73;3.53;;;21.00;1.00;;;;;;5033927;28;20255;-80
2023/05/05 11:21:16;;;;;;;4.53;2.97;;;20.90;97.00;;;;;;5034876;28;20156;-80
2023/05/05 11:23:44;;;;;;;5.13;3.57;;;20.90;1.00;;;;;;5033186;28;20172;-80
2023/05/05 11:26:10;;;;;;;3.77;3.40;;;20.70;1.00;;;;;;5032598;28;20204;-80
2023/05/05 11:28:55;;;;;;;5.73;3.77;;;20.50;1.00;;;;;;5034691;28;20196;-79
2023/05/05 11:31:21;;;;;;;6.07;3.80;;;20.50;99.90;;;;;;5039774;28;20185;-79
2023/05/05 11:33:47;;;;;;;6.37;3.83;;;20.50;99.90;;;;;;5039668;28;20181;-80
2023/05/05 11:36:17;;;;;;;6.40;3.53;;;20.40;1.00;;;;;;5039088;28;20238;-81
2023/05/05 11:39:40;;;;;;;6.93;3.80;;;20.40;99.90;;;;;;5038904;28;20672;-80
2023/05/05 11:42:24;;;;;;;6.10;4.47;;;20.30;1.00;;;;;;5080662;28;20193;-80
2023/05/05 11:44:51;;;;;;;8.57;4.80;;;20.10;99.90;;;;;;5079558;28;20190;-81
2023/05/05 11:47:16;;;;;;;10.77;5.37;;;19.90;55.50;;;;;;5052252;28;20208;-80
2023/05/05 11:49:42;;;;;;;12.33;5.47;;;19.80;99.90;;;;;;5038893;28;20175;-81
2023/05/05 11:52:12;;;;;;;10.27;4.07;;;19.60;1.00;;;;;;5033521;28;20180;-81
2023/05/05 11:54:46;;;;;;;8.10;2.73;;;19.20;1.00;;;;;;5031727;28;20188;-78
2023/05/05 11:57:13;;;;;;;7.60;2.73;;;18.80;1.00;;;;;;5032763;28;20222;-79
2023/05/05 12:00:02;;;;;;;4.63;2.43;;;18.40;1.00;;;;;;5030432;28;20577;-77
2023/05/05 12:02:29;;;;;;;5.13;1.80;;;18.20;5.20;;;;;;5030410;28;20165;-77
2023/05/05 12:04:55;;;;;;;4.17;1.40;;;18.00;6.10;;;;;;5030087;28;20198;-77
2023/05/05 12:07:23;;;;;;;4.80;1.23;;;17.80;3.00;;;;;;5029086;28;20328;-76
2023/05/05 12:09:49;;;;;;;6.27;1.70;;;17.60;1.00;;;;;;5032258;28;20180;-76
2023/05/05 12:12:15;;;;;;;3.67;1.50;;;17.60;1.00;;;;;;5031550;28;20196;-76
2023/05/05 12:14:51;;;;;;;3.80;1.40;;;17.50;27.40;;;;;;5033687;28;20684;-76
2023/05/05 12:17:21;;;;;;;6.10;1.80;;;17.30;57.30;;;;;;5032637;28;20271;-76
2023/05/05 12:19:51;;;;;;;4.17;1.60;;;17.20;99.90;;;;;;5032830;28;20548;-76
2023/05/05 12:22:25;;;;;;;4.13;1.77;;;17.20;99.90;;;;;;5034055;28;20231;-76
2023/05/05 12:24:59;;;;;;;4.17;1.80;;;17.10;99.90;;;;;;5034929;28;20622;-76
2023/05/05 12:27:26;;;;;;;3.23;1.73;;;17.10;99.90;;;;;;5033850;28;20200;-76
2023/05/05 12:29:54;;;;;;;3.13;1.70;;;17.00;99.90;;;;;;5034724;28;20173;-76
2023/05/05 12:32:26;;;;;;;3.30;2.00;;;16.90;99.90;;;;;;5028914;28;20234;-78
2023/05/05 12:34:56;;;;;;;3.63;1.80;;;17.20;99.90;;;;;;5028620;28;20184;-76
2023/05/05 12:37:23;;;;;;;3.67;2.00;;;17.20;99.90;;;;;;5034963;28;20672;-77
2023/05/05 12:39:50;;;;;;;4.93;1.87;;;17.30;99.90;;;;;;5033603;28;20253;-76
2023/05/05 12:42:15;;;;;;;2.17;1.77;;;17.30;99.90;;;;;;5031818;28;20272;-76
2023/05/05 12:44:43;;;;;;;2.67;1.70;;;17.60;99.90;;;;;;5032878;28;20212;-77
2023/05/05 12:47:09;;;;;;;2.27;1.43;;;17.80;99.90;;;;;;5032509;28;20218;-77
2023/05/05 12:49:45;;;;;;;3.00;1.70;;;17.90;99.90;;;;;;5033492;28;20225;-77
2023/05/05 12:52:10;;;;;;;2.33;1.53;;;18.00;99.90;;;;;;5032038;28;20176;-77
2023/05/05 12:54:53;;;;;;;4.20;1.90;;;18.10;99.90;;;;;;5033507;28;20269;-76